sensor_id;sensor_type;location;lat;lon;timestamp;temperature;humidity
29547;DHT22;40782;47.264;11.330;2023-06-22T00:00:50;20.10;99.90
29547;DHT22;40782;47.264;11.330;2023-06-22T00:03:17;20.10;99.90
29547;DHT22;40782;47.264;11.330;2023-06-22T00:05:46;20.10;99.90
29547;DHT22;40782;47.264;11.330;2023-06-22T00:08:14;20.20;99.90
29547;DHT22;40782;47.264;11.330;2023-06-22T00:10:41;20.10;99.90
29547;DHT22;40782;47.264;11.330;2023-06-22T00:13:08;20.10;99.90
29547;DHT22;40782;47.264;11.330;2023-06-22T00:15:36;20.10;99.90
29547;DHT22;40782;47.264;11.330;2023-06-22T00:18:04;20.00;99.90
29547;DHT22;40782;47.264;11.330;2023-06-22T00:20:31;19.90;99.90
29547;DHT22;40782;47.264;11.330;2023-06-22T00:22:59;19.90;99.90
29547;DHT22;40782;47.264;11.330;2023-06-22T00:25:26;19.80;99.90
29547;DHT22;40782;47.264;11.330;2023-06-22T00:27:53;19.70;99.90
29547;DHT22;40782;47.264;11.330;2023-06-22T00:30:20;19.70;99.90
29547;DHT22;40782;47.264;11.330;2023-06-22T00:32:47;19.60;99.90
29547;DHT22;40782;47.264;11.330;2023-06-22T00:35:14;19.60;99.90
29547;DHT22;40782;47.264;11.330;2023-06-22T00:37:41;19.60;99.90
29547;DHT22;40782;47.264;11.330;2023-06-22T00:40:10;19.50;99.90
29547;DHT22;40782;47.264;11.330;2023-06-22T00:42:38;19.50;99.90
29547;DHT22;40782;47.264;11.330;2023-06-22T00:45:06;19.50;99.90
29547;DHT22;40782;47.264;11.330;2023-06-22T00:47:34;19.50;99.90
29547;DHT22;40782;47.264;11.330;2023-06-22T00:50:01;19.50;99.90
29547;DHT22;40782;47.264;11.330;2023-06-22T00:52:29;19.50;99.90
29547;DHT22;40782;47.264;11.330;2023-06-22T00:54:59;19.40;99.90
29547;DHT22;40782;47.264;11.330;2023-06-22T00:57:28;19.40;99.90
29547;DHT22;40782;47.264;11.330;2023-06-22T00:59:55;19.40;99.90
29547;DHT22;40782;47.264;11.330;2023-06-22T01:02:22;19.40;99.90
29547;DHT22;40782;47.264;11.330;2023-06-22T01:04:49;19.30;99.90
29547;DHT22;40782;47.264;11.330;2023-06-22T01:07:18;19.30;99.90
29547;DHT22;40782;47.264;11.330;2023-06-22T01:09:49;19.20;99.90
29547;DHT22;40782;47.264;11.330;2023-06-22T01:12:18;19.20;99.90
29547;DHT22;40782;47.264;11.330;2023-06-22T01:14:50;19.20;99.90
29547;DHT22;40782;47.264;11.330;2023-06-22T01:17:18;19.00;99.90
29547;DHT22;40782;47.264;11.330;2023-06-22T01:19:46;19.00;99.90
29547;DHT22;40782;47.264;11.330;2023-06-22T01:22:20;19.00;99.90
29547;DHT22;40782;47.264;11.330;2023-06-22T01:24:51;19.00;99.90
29547;DHT22;40782;47.264;11.330;2023-06-22T01:27:26;19.00;99.90
29547;DHT22;40782;47.264;11.330;2023-06-22T01:29:57;19.00;99.90
29547;DHT22;40782;47.264;11.330;2023-06-22T01:32:27;19.00;99.90
29547;DHT22;40782;47.264;11.330;2023-06-22T01:34:55;19.00;99.90
29547;DHT22;40782;47.264;11.330;2023-06-22T01:37:22;19.00;99.90
29547;DHT22;40782;47.264;11.330;2023-06-22T01:39:49;19.00;99.90
29547;DHT22;40782;47.264;11.330;2023-06-22T01:42:17;19.00;99.90
29547;DHT22;40782;47.264;11.330;2023-06-22T01:44:44;18.90;99.90
29547;DHT22;40782;47.264;11.330;2023-06-22T01:47:13;18.90;99.90
29547;DHT22;40782;47.264;11.330;2023-06-22T01:49:40;18.90;99.90
29547;DHT22;40782;47.264;11.330;2023-06-22T01:52:07;18.80;99.90
29547;DHT22;40782;47.264;11.330;2023-06-22T01:54:34;18.80;99.90
29547;DHT22;40782;47.264;11.330;2023-06-22T01:57:01;18.80;99.90
29547;DHT22;40782;47.264;11.330;2023-06-22T01:59:31;18.70;99.90
29547;DHT22;40782;47.264;11.330;2023-06-22T02:02:00;18.60;99.90
29547;DHT22;40782;47.264;11.330;2023-06-22T02:04:31;18.60;99.90
29547;DHT22;40782;47.264;11.330;2023-06-22T02:06:59;18.70;99.90
29547;DHT22;40782;47.264;11.330;2023-06-22T02:09:29;18.70;99.90
29547;DHT22;40782;47.264;11.330;2023-06-22T02:11:57;18.70;99.90
29547;DHT22;40782;47.264;11.330;2023-06-22T02:14:25;18.70;99.90
29547;DHT22;40782;47.264;11.330;2023-06-22T02:16:52;18.70;99.90
29547;DHT22;40782;47.264;11.330;2023-06-22T02:19:22;18.70;99.90
29547;DHT22;40782;47.264;11.330;2023-06-22T02:21:51;18.60;99.90
29547;DHT22;40782;47.264;11.330;2023-06-22T02:24:18;18.70;99.90
29547;DHT22;40782;47.264;11.330;2023-06-22T02:26:48;18.60;99.90
29547;DHT22;40782;47.264;11.330;2023-06-22T02:29:16;18.60;99.90
29547;DHT22;40782;47.264;11.330;2023-06-22T02:31:43;18.60;99.90
29547;DHT22;40782;47.264;11.330;2023-06-22T02:34:10;18.60;99.90
29547;DHT22;40782;47.264;11.330;2023-06-22T02:36:43;18.60;99.90
29547;DHT22;40782;47.264;11.330;2023-06-22T02:39:18;18.60;99.90
29547;DHT22;40782;47.264;11.330;2023-06-22T02:41:45;18.60;99.90
29547;DHT22;40782;47.264;11.330;2023-06-22T02:44:12;18.60;99.90
29547;DHT22;40782;47.264;11.330;2023-06-22T02:46:39;18.60;99.90
29547;DHT22;40782;47.264;11.330;2023-06-22T02:49:07;18.50;99.90
29547;DHT22;40782;47.264;11.330;2023-06-22T02:51:34;18.50;99.90
29547;DHT22;40782;47.264;11.330;2023-06-22T02:54:01;18.50;99.90
29547;DHT22;40782;47.264;11.330;2023-06-22T02:56:29;18.40;99.90
29547;DHT22;40782;47.264;11.330;2023-06-22T02:58:56;18.40;99.90
29547;DHT22;40782;47.264;11.330;2023-06-22T03:01:26;18.40;99.90
29547;DHT22;40782;47.264;11.330;2023-06-22T03:03:53;18.40;99.90
29547;DHT22;40782;47.264;11.330;2023-06-22T03:06:20;18.40;99.90
29547;DHT22;40782;47.264;11.330;2023-06-22T03:08:49;18.40;99.90
29547;DHT22;40782;47.264;11.330;2023-06-22T03:11:16;18.40;99.90
29547;DHT22;40782;47.264;11.330;2023-06-22T03:13:44;18.50;99.90
29547;DHT22;40782;47.264;11.330;2023-06-22T03:16:12;18.40;99.90
29547;DHT22;40782;47.264;11.330;2023-06-22T03:18:39;18.30;99.90
29547;DHT22;40782;47.264;11.330;2023-06-22T03:21:06;18.30;99.90
29547;DHT22;40782;47.264;11.330;2023-06-22T03:23:33;18.30;99.90
29547;DHT22;40782;47.264;11.330;2023-06-22T03:26:00;18.20;99.90
29547;DHT22;40782;47.264;11.330;2023-06-22T03:28:27;18.20;99.90
29547;DHT22;40782;47.264;11.330;2023-06-22T03:30:56;18.10;99.90
29547;DHT22;40782;47.264;11.330;2023-06-22T03:33:24;18.20;99.90
29547;DHT22;40782;47.264;11.330;2023-06-22T03:35:51;18.20;99.90
29547;DHT22;40782;47.264;11.330;2023-06-22T03:38:19;18.20;99.90
29547;DHT22;40782;47.264;11.330;2023-06-22T03:40:46;18.10;99.90
29547;DHT22;40782;47.264;11.330;2023-06-22T03:43:13;18.10;99.90
29547;DHT22;40782;47.264;11.330;2023-06-22T03:45:40;18.10;99.90
29547;DHT22;40782;47.264;11.330;2023-06-22T03:48:09;18.20;99.90
29547;DHT22;40782;47.264;11.330;2023-06-22T03:50:36;18.20;99.90
29547;DHT22;40782;47.264;11.330;2023-06-22T03:53:03;18.20;99.90
29547;DHT22;40782;47.264;11.330;2023-06-22T03:55:30;18.30;99.90
29547;DHT22;40782;47.264;11.330;2023-06-22T03:57:57;18.30;99.90
29547;DHT22;40782;47.264;11.330;2023-06-22T04:00:31;18.20;99.90
29547;DHT22;40782;47.264;11.330;2023-06-22T04:02:58;18.30;99.90
29547;DHT22;40782;47.264;11.330;2023-06-22T04:05:26;18.30;99.90
29547;DHT22;40782;47.264;11.330;2023-06-22T04:07:53;18.40;99.90
29547;DHT22;40782;47.264;11.330;2023-06-22T04:10:20;18.40;99.90
29547;DHT22;40782;47.264;11.330;2023-06-22T04:12:47;18.40;99.90
29547;DHT22;40782;47.264;11.330;2023-06-22T04:15:14;18.40;99.90
29547;DHT22;40782;47.264;11.330;2023-06-22T04:17:41;18.40;99.90
29547;DHT22;40782;47.264;11.330;2023-06-22T04:20:08;18.40;99.90
29547;DHT22;40782;47.264;11.330;2023-06-22T04:22:37;18.40;99.90
29547;DHT22;40782;47.264;11.330;2023-06-22T04:25:05;18.40;99.90
29547;DHT22;40782;47.264;11.330;2023-06-22T04:27:33;18.40;99.90
29547;DHT22;40782;47.264;11.330;2023-06-22T04:30:03;18.40;99.90
29547;DHT22;40782;47.264;11.330;2023-06-22T04:32:30;18.30;99.90
29547;DHT22;40782;47.264;11.330;2023-06-22T04:34:57;18.30;99.90
29547;DHT22;40782;47.264;11.330;2023-06-22T04:37:26;18.30;99.90
29547;DHT22;40782;47.264;11.330;2023-06-22T04:39:54;18.30;99.90
29547;DHT22;40782;47.264;11.330;2023-06-22T04:42:21;18.40;99.90
29547;DHT22;40782;47.264;11.330;2023-06-22T04:44:48;18.40;99.90
29547;DHT22;40782;47.264;11.330;2023-06-22T04:47:15;18.30;99.90
29547;DHT22;40782;47.264;11.330;2023-06-22T04:49:42;18.40;99.90
29547;DHT22;40782;47.264;11.330;2023-06-22T04:52:10;18.50;99.90
29547;DHT22;40782;47.264;11.330;2023-06-22T04:54:38;18.50;99.90
29547;DHT22;40782;47.264;11.330;2023-06-22T04:57:07;18.60;99.90
29547;DHT22;40782;47.264;11.330;2023-06-22T04:59:35;18.60;99.90
29547;DHT22;40782;47.264;11.330;2023-06-22T05:02:04;18.50;99.90
29547;DHT22;40782;47.264;11.330;2023-06-22T05:04:31;18.50;99.90
29547;DHT22;40782;47.264;11.330;2023-06-22T05:07:01;18.60;99.90
29547;DHT22;40782;47.264;11.330;2023-06-22T05:09:28;18.60;99.90
29547;DHT22;40782;47.264;11.330;2023-06-22T05:11:55;18.70;99.90
29547;DHT22;40782;47.264;11.330;2023-06-22T05:14:24;18.80;99.90
29547;DHT22;40782;47.264;11.330;2023-06-22T05:16:51;18.80;99.90
29547;DHT22;40782;47.264;11.330;2023-06-22T05:19:18;18.90;99.90
29547;DHT22;40782;47.264;11.330;2023-06-22T05:21:45;18.90;99.90
29547;DHT22;40782;47.264;11.330;2023-06-22T05:24:12;19.00;99.90
29547;DHT22;40782;47.264;11.330;2023-06-22T05:26:39;19.10;99.90
29547;DHT22;40782;47.264;11.330;2023-06-22T05:29:06;19.10;99.90
29547;DHT22;40782;47.264;11.330;2023-06-22T05:31:37;19.20;99.90
29547;DHT22;40782;47.264;11.330;2023-06-22T05:34:05;19.20;99.90
29547;DHT22;40782;47.264;11.330;2023-06-22T05:36:32;19.20;99.90
29547;DHT22;40782;47.264;11.330;2023-06-22T05:39:10;19.20;99.90
29547;DHT22;40782;47.264;11.330;2023-06-22T05:41:37;19.20;99.90
29547;DHT22;40782;47.264;11.330;2023-06-22T05:44:04;19.30;99.90
29547;DHT22;40782;47.264;11.330;2023-06-22T05:46:31;19.30;99.90
29547;DHT22;40782;47.264;11.330;2023-06-22T05:49:00;19.30;99.90
29547;DHT22;40782;47.264;11.330;2023-06-22T05:51:27;19.30;99.90
29547;DHT22;40782;47.264;11.330;2023-06-22T05:53:54;19.30;99.90
29547;DHT22;40782;47.264;11.330;2023-06-22T05:56:21;19.40;99.90
29547;DHT22;40782;47.264;11.330;2023-06-22T05:58:48;19.40;99.90
29547;DHT22;40782;47.264;11.330;2023-06-22T06:01:15;19.30;99.90
29547;DHT22;40782;47.264;11.330;2023-06-22T06:03:42;19.30;99.90
29547;DHT22;40782;47.264;11.330;2023-06-22T06:06:11;19.30;99.90
29547;DHT22;40782;47.264;11.330;2023-06-22T06:08:38;19.40;99.90
29547;DHT22;40782;47.264;11.330;2023-06-22T06:11:05;19.40;99.90
29547;DHT22;40782;47.264;11.330;2023-06-22T06:13:32;19.50;99.90
29547;DHT22;40782;47.264;11.330;2023-06-22T06:15:59;19.50;99.90
29547;DHT22;40782;47.264;11.330;2023-06-22T06:18:26;19.60;99.90
29547;DHT22;40782;47.264;11.330;2023-06-22T06:20:53;19.70;99.90
29547;DHT22;40782;47.264;11.330;2023-06-22T06:23:22;19.80;99.90
29547;DHT22;40782;47.264;11.330;2023-06-22T06:25:49;19.90;99.90
29547;DHT22;40782;47.264;11.330;2023-06-22T06:28:16;20.10;99.90
29547;DHT22;40782;47.264;11.330;2023-06-22T06:30:43;20.20;99.90
29547;DHT22;40782;47.264;11.330;2023-06-22T06:33:12;20.40;99.90
29547;DHT22;40782;47.264;11.330;2023-06-22T06:35:39;20.50;99.90
29547;DHT22;40782;47.264;11.330;2023-06-22T06:38:06;20.50;99.90
29547;DHT22;40782;47.264;11.330;2023-06-22T06:40:35;20.60;99.90
29547;DHT22;40782;47.264;11.330;2023-06-22T06:43:02;20.70;99.90
29547;DHT22;40782;47.264;11.330;2023-06-22T06:45:29;20.70;99.90
29547;DHT22;40782;47.264;11.330;2023-06-22T06:47:58;20.70;99.90
29547;DHT22;40782;47.264;11.330;2023-06-22T06:50:25;20.70;99.90
29547;DHT22;40782;47.264;11.330;2023-06-22T06:52:52;20.70;99.90
29547;DHT22;40782;47.264;11.330;2023-06-22T06:55:20;20.70;99.90
29547;DHT22;40782;47.264;11.330;2023-06-22T06:57:51;20.80;99.90
29547;DHT22;40782;47.264;11.330;2023-06-22T07:00:18;20.80;99.90
29547;DHT22;40782;47.264;11.330;2023-06-22T07:02:45;21.00;99.90
29547;DHT22;40782;47.264;11.330;2023-06-22T07:05:13;21.10;99.90
29547;DHT22;40782;47.264;11.330;2023-06-22T07:07:40;21.20;99.90
29547;DHT22;40782;47.264;11.330;2023-06-22T07:10:08;21.30;99.90
29547;DHT22;40782;47.264;11.330;2023-06-22T07:12:35;21.40;99.90
29547;DHT22;40782;47.264;11.330;2023-06-22T07:15:05;21.50;99.90
29547;DHT22;40782;47.264;11.330;2023-06-22T07:17:33;21.50;99.90
29547;DHT22;40782;47.264;11.330;2023-06-22T07:20:00;21.60;99.90
29547;DHT22;40782;47.264;11.330;2023-06-22T07:22:27;21.80;99.90
29547;DHT22;40782;47.264;11.330;2023-06-22T07:24:54;21.90;99.90
29547;DHT22;40782;47.264;11.330;2023-06-22T07:27:21;22.10;99.90
29547;DHT22;40782;47.264;11.330;2023-06-22T07:29:49;22.20;99.90
29547;DHT22;40782;47.264;11.330;2023-06-22T07:32:17;22.30;99.90
29547;DHT22;40782;47.264;11.330;2023-06-22T07:34:44;22.40;99.90
29547;DHT22;40782;47.264;11.330;2023-06-22T07:37:11;22.50;99.90
29547;DHT22;40782;47.264;11.330;2023-06-22T07:39:38;22.70;99.90
29547;DHT22;40782;47.264;11.330;2023-06-22T07:42:05;22.80;99.90
29547;DHT22;40782;47.264;11.330;2023-06-22T07:44:32;23.00;99.90
29547;DHT22;40782;47.264;11.330;2023-06-22T07:46:59;23.10;99.90
29547;DHT22;40782;47.264;11.330;2023-06-22T07:49:28;23.30;99.90
29547;DHT22;40782;47.264;11.330;2023-06-22T07:51:56;23.40;99.90
29547;DHT22;40782;47.264;11.330;2023-06-22T07:54:23;23.60;99.90
29547;DHT22;40782;47.264;11.330;2023-06-22T07:56:50;23.80;99.90
29547;DHT22;40782;47.264;11.330;2023-06-22T07:59:17;23.90;99.90
29547;DHT22;40782;47.264;11.330;2023-06-22T08:01:44;24.00;99.90
29547;DHT22;40782;47.264;11.330;2023-06-22T08:04:11;24.10;99.90
29547;DHT22;40782;47.264;11.330;2023-06-22T08:06:39;24.20;99.90
29547;DHT22;40782;47.264;11.330;2023-06-22T08:09:07;24.30;99.90
29547;DHT22;40782;47.264;11.330;2023-06-22T08:11:34;24.30;99.90
29547;DHT22;40782;47.264;11.330;2023-06-22T08:14:01;24.50;99.90
29547;DHT22;40782;47.264;11.330;2023-06-22T08:16:28;24.60;99.90
29547;DHT22;40782;47.264;11.330;2023-06-22T08:18:55;24.60;99.90
29547;DHT22;40782;47.264;11.330;2023-06-22T08:21:22;24.60;99.90
29547;DHT22;40782;47.264;11.330;2023-06-22T08:23:51;24.60;99.90
29547;DHT22;40782;47.264;11.330;2023-06-22T08:26:18;24.60;99.90
29547;DHT22;40782;47.264;11.330;2023-06-22T08:28:45;24.60;99.90
29547;DHT22;40782;47.264;11.330;2023-06-22T08:31:12;24.60;99.90
29547;DHT22;40782;47.264;11.330;2023-06-22T08:33:39;24.70;99.90
29547;DHT22;40782;47.264;11.330;2023-06-22T08:36:08;24.70;99.90
29547;DHT22;40782;47.264;11.330;2023-06-22T08:38:36;24.70;99.90
29547;DHT22;40782;47.264;11.330;2023-06-22T08:41:04;24.70;99.90
29547;DHT22;40782;47.264;11.330;2023-06-22T08:43:32;24.70;99.90
29547;DHT22;40782;47.264;11.330;2023-06-22T08:45:59;24.80;99.90
29547;DHT22;40782;47.264;11.330;2023-06-22T08:48:26;24.90;99.90
29547;DHT22;40782;47.264;11.330;2023-06-22T08:50:53;25.10;99.90
29547;DHT22;40782;47.264;11.330;2023-06-22T08:53:20;25.10;99.90
29547;DHT22;40782;47.264;11.330;2023-06-22T08:55:47;25.20;99.90
29547;DHT22;40782;47.264;11.330;2023-06-22T08:58:17;25.20;99.90
29547;DHT22;40782;47.264;11.330;2023-06-22T09:00:45;25.20;99.90
29547;DHT22;40782;47.264;11.330;2023-06-22T09:03:13;25.20;99.90
29547;DHT22;40782;47.264;11.330;2023-06-22T09:05:40;25.20;99.90
29547;DHT22;40782;47.264;11.330;2023-06-22T09:08:07;25.30;99.90
29547;DHT22;40782;47.264;11.330;2023-06-22T09:10:34;25.20;99.90
29547;DHT22;40782;47.264;11.330;2023-06-22T09:13:01;25.30;99.90
29547;DHT22;40782;47.264;11.330;2023-06-22T09:15:30;25.40;99.90
29547;DHT22;40782;47.264;11.330;2023-06-22T09:17:57;25.30;99.90
29547;DHT22;40782;47.264;11.330;2023-06-22T09:20:24;25.40;99.90
29547;DHT22;40782;47.264;11.330;2023-06-22T09:22:51;25.30;99.90
29547;DHT22;40782;47.264;11.330;2023-06-22T09:25:18;25.40;99.90
29547;DHT22;40782;47.264;11.330;2023-06-22T09:27:46;25.50;99.90
29547;DHT22;40782;47.264;11.330;2023-06-22T09:30:13;25.60;99.90
29547;DHT22;40782;47.264;11.330;2023-06-22T09:32:42;25.70;99.90
29547;DHT22;40782;47.264;11.330;2023-06-22T09:35:09;26.00;99.90
29547;DHT22;40782;47.264;11.330;2023-06-22T09:37:38;26.30;99.90
29547;DHT22;40782;47.264;11.330;2023-06-22T09:40:06;26.50;99.90
29547;DHT22;40782;47.264;11.330;2023-06-22T09:42:36;26.70;99.90
29547;DHT22;40782;47.264;11.330;2023-06-22T09:45:04;27.00;99.90
29547;DHT22;40782;47.264;11.330;2023-06-22T09:47:31;27.20;99.90
29547;DHT22;40782;47.264;11.330;2023-06-22T09:49:59;27.30;99.90
29547;DHT22;40782;47.264;11.330;2023-06-22T09:52:26;27.50;99.90
29547;DHT22;40782;47.264;11.330;2023-06-22T09:54:53;27.70;99.90
29547;DHT22;40782;47.264;11.330;2023-06-22T09:57:23;27.80;99.90
29547;DHT22;40782;47.264;11.330;2023-06-22T09:59:50;28.00;99.90
29547;DHT22;40782;47.264;11.330;2023-06-22T10:02:17;28.10;99.90
29547;DHT22;40782;47.264;11.330;2023-06-22T10:04:45;28.30;99.90
29547;DHT22;40782;47.264;11.330;2023-06-22T10:07:14;28.50;99.90
29547;DHT22;40782;47.264;11.330;2023-06-22T10:09:41;28.80;99.90
29547;DHT22;40782;47.264;11.330;2023-06-22T10:12:08;28.80;99.50
29547;DHT22;40782;47.264;11.330;2023-06-22T10:14:36;28.90;99.50
29547;DHT22;40782;47.264;11.330;2023-06-22T10:17:03;29.00;97.90
29547;DHT22;40782;47.264;11.330;2023-06-22T10:19:32;29.10;97.90
29547;DHT22;40782;47.264;11.330;2023-06-22T10:22:02;29.10;99.20
29547;DHT22;40782;47.264;11.330;2023-06-22T10:24:31;29.20;99.20
29547;DHT22;40782;47.264;11.330;2023-06-22T10:26:58;29.20;99.90
29547;DHT22;40782;47.264;11.330;2023-06-22T10:29:25;29.20;99.90
29547;DHT22;40782;47.264;11.330;2023-06-22T10:31:52;29.20;99.10
29547;DHT22;40782;47.264;11.330;2023-06-22T10:34:19;29.20;98.70
29547;DHT22;40782;47.264;11.330;2023-06-22T10:36:46;29.30;99.90
29547;DHT22;40782;47.264;11.330;2023-06-22T10:39:14;29.40;99.40
29547;DHT22;40782;47.264;11.330;2023-06-22T10:41:43;29.40;99.30
29547;DHT22;40782;47.264;11.330;2023-06-22T10:44:10;29.40;98.00
29547;DHT22;40782;47.264;11.330;2023-06-22T10:46:37;29.50;98.70
29547;DHT22;40782;47.264;11.330;2023-06-22T10:49:04;29.70;99.40
29547;DHT22;40782;47.264;11.330;2023-06-22T10:51:31;29.80;98.50
29547;DHT22;40782;47.264;11.330;2023-06-22T10:53:59;30.00;97.10
29547;DHT22;40782;47.264;11.330;2023-06-22T10:56:26;30.00;96.20
29547;DHT22;40782;47.264;11.330;2023-06-22T10:58:54;29.90;95.80
29547;DHT22;40782;47.264;11.330;2023-06-22T11:01:21;30.00;94.70
29547;DHT22;40782;47.264;11.330;2023-06-22T11:03:48;30.20;94.40
29547;DHT22;40782;47.264;11.330;2023-06-22T11:06:15;30.30;94.30
29547;DHT22;40782;47.264;11.330;2023-06-22T11:08:43;30.40;94.30
29547;DHT22;40782;47.264;11.330;2023-06-22T11:11:10;30.60;93.90
29547;DHT22;40782;47.264;11.330;2023-06-22T11:13:38;30.60;93.60
29547;DHT22;40782;47.264;11.330;2023-06-22T11:16:06;30.80;93.50
29547;DHT22;40782;47.264;11.330;2023-06-22T11:18:33;30.90;92.90
29547;DHT22;40782;47.264;11.330;2023-06-22T11:21:00;31.10;92.80
29547;DHT22;40782;47.264;11.330;2023-06-22T11:23:28;31.10;92.00
29547;DHT22;40782;47.264;11.330;2023-06-22T11:25:55;31.30;90.50
29547;DHT22;40782;47.264;11.330;2023-06-22T11:28:22;31.40;90.40
29547;DHT22;40782;47.264;11.330;2023-06-22T11:30:49;31.40;90.50
29547;DHT22;40782;47.264;11.330;2023-06-22T11:33:18;31.20;89.50
29547;DHT22;40782;47.264;11.330;2023-06-22T11:35:45;31.50;88.60
29547;DHT22;40782;47.264;11.330;2023-06-22T11:38:12;31.80;88.70
29547;DHT22;40782;47.264;11.330;2023-06-22T11:40:39;31.80;87.40
29547;DHT22;40782;47.264;11.330;2023-06-22T11:43:06;32.20;88.90
29547;DHT22;40782;47.264;11.330;2023-06-22T11:45:33;32.20;84.00
29547;DHT22;40782;47.264;11.330;2023-06-22T11:48:00;32.40;81.60
29547;DHT22;40782;47.264;11.330;2023-06-22T11:50:29;32.70;81.00
29547;DHT22;40782;47.264;11.330;2023-06-22T11:53:01;32.80;81.00
29547;DHT22;40782;47.264;11.330;2023-06-22T11:55:28;32.70;76.60
29547;DHT22;40782;47.264;11.330;2023-06-22T11:57:56;32.60;78.00
29547;DHT22;40782;47.264;11.330;2023-06-22T12:00:25;32.80;76.30
29547;DHT22;40782;47.264;11.330;2023-06-22T12:02:52;32.80;75.80
29547;DHT22;40782;47.264;11.330;2023-06-22T12:05:20;32.90;74.60
29547;DHT22;40782;47.264;11.330;2023-06-22T12:07:49;33.10;77.10
29547;DHT22;40782;47.264;11.330;2023-06-22T12:10:16;33.60;77.10
29547;DHT22;40782;47.264;11.330;2023-06-22T12:12:43;33.80;80.10
29547;DHT22;40782;47.264;11.330;2023-06-22T12:15:10;34.20;80.00
29547;DHT22;40782;47.264;11.330;2023-06-22T12:17:37;34.30;79.90
29547;DHT22;40782;47.264;11.330;2023-06-22T12:20:05;34.20;81.60
29547;DHT22;40782;47.264;11.330;2023-06-22T12:22:33;34.10;78.70
29547;DHT22;40782;47.264;11.330;2023-06-22T12:25:01;34.10;80.30
29547;DHT22;40782;47.264;11.330;2023-06-22T12:27:29;34.00;80.60
29547;DHT22;40782;47.264;11.330;2023-06-22T12:29:56;34.50;85.30
29547;DHT22;40782;47.264;11.330;2023-06-22T12:32:24;35.00;82.20
29547;DHT22;40782;47.264;11.330;2023-06-22T12:34:51;35.40;84.00
29547;DHT22;40782;47.264;11.330;2023-06-22T12:37:18;35.80;81.30
29547;DHT22;40782;47.264;11.330;2023-06-22T12:39:45;36.10;81.50
29547;DHT22;40782;47.264;11.330;2023-06-22T12:42:14;36.30;70.80
29547;DHT22;40782;47.264;11.330;2023-06-22T12:44:41;36.40;64.50
29547;DHT22;40782;47.264;11.330;2023-06-22T12:47:08;36.50;63.40
29547;DHT22;40782;47.264;11.330;2023-06-22T12:49:36;36.50;61.40
29547;DHT22;40782;47.264;11.330;2023-06-22T12:52:08;36.40;60.10
29547;DHT22;40782;47.264;11.330;2023-06-22T12:54:35;36.50;60.60
29547;DHT22;40782;47.264;11.330;2023-06-22T12:57:02;36.70;57.80
29547;DHT22;40782;47.264;11.330;2023-06-22T12:59:30;36.80;55.90
29547;DHT22;40782;47.264;11.330;2023-06-22T13:01:58;37.00;57.80
29547;DHT22;40782;47.264;11.330;2023-06-22T13:04:25;37.20;56.50
29547;DHT22;40782;47.264;11.330;2023-06-22T13:06:52;37.70;53.00
29547;DHT22;40782;47.264;11.330;2023-06-22T13:09:19;37.90;53.20
29547;DHT22;40782;47.264;11.330;2023-06-22T13:11:46;37.90;52.10
29547;DHT22;40782;47.264;11.330;2023-06-22T13:14:13;38.00;52.20
29547;DHT22;40782;47.264;11.330;2023-06-22T13:16:43;38.30;51.20
29547;DHT22;40782;47.264;11.330;2023-06-22T13:19:10;38.30;49.20
29547;DHT22;40782;47.264;11.330;2023-06-22T13:21:37;38.20;48.90
29547;DHT22;40782;47.264;11.330;2023-06-22T13:24:04;38.00;48.90
29547;DHT22;40782;47.264;11.330;2023-06-22T13:26:32;38.00;47.80
29547;DHT22;40782;47.264;11.330;2023-06-22T13:29:00;37.80;49.20
29547;DHT22;40782;47.264;11.330;2023-06-22T13:31:27;37.80;48.10
29547;DHT22;40782;47.264;11.330;2023-06-22T13:33:55;37.90;49.60
29547;DHT22;40782;47.264;11.330;2023-06-22T13:36:22;37.60;49.40
29547;DHT22;40782;47.264;11.330;2023-06-22T13:38:50;37.50;50.90
29547;DHT22;40782;47.264;11.330;2023-06-22T13:41:17;37.70;48.30
29547;DHT22;40782;47.264;11.330;2023-06-22T13:43:44;37.40;48.60
29547;DHT22;40782;47.264;11.330;2023-06-22T13:46:11;37.60;47.10
29547;DHT22;40782;47.264;11.330;2023-06-22T13:48:38;37.80;47.00
29547;DHT22;40782;47.264;11.330;2023-06-22T13:51:06;38.10;47.10
29547;DHT22;40782;47.264;11.330;2023-06-22T13:53:33;38.10;44.50
29547;DHT22;40782;47.264;11.330;2023-06-22T13:56:00;38.20;45.20
29547;DHT22;40782;47.264;11.330;2023-06-22T13:58:27;38.20;46.00
29547;DHT22;40782;47.264;11.330;2023-06-22T14:00:54;38.00;43.30
29547;DHT22;40782;47.264;11.330;2023-06-22T14:03:21;37.70;42.80
29547;DHT22;40782;47.264;11.330;2023-06-22T14:05:48;37.40;41.50
29547;DHT22;40782;47.264;11.330;2023-06-22T14:08:17;37.20;39.10
29547;DHT22;40782;47.264;11.330;2023-06-22T14:10:45;37.30;42.60
29547;DHT22;40782;47.264;11.330;2023-06-22T14:13:12;37.20;40.30
29547;DHT22;40782;47.264;11.330;2023-06-22T14:15:39;37.20;41.10
29547;DHT22;40782;47.264;11.330;2023-06-22T14:18:06;37.10;40.30
29547;DHT22;40782;47.264;11.330;2023-06-22T14:20:33;37.00;39.70
29547;DHT22;40782;47.264;11.330;2023-06-22T14:23:00;36.70;40.00
29547;DHT22;40782;47.264;11.330;2023-06-22T14:25:28;36.70;40.90
29547;DHT22;40782;47.264;11.330;2023-06-22T14:27:55;36.50;39.90
29547;DHT22;40782;47.264;11.330;2023-06-22T14:30:23;36.60;41.40
29547;DHT22;40782;47.264;11.330;2023-06-22T14:32:50;36.80;41.30
29547;DHT22;40782;47.264;11.330;2023-06-22T14:35:17;37.10;40.60
29547;DHT22;40782;47.264;11.330;2023-06-22T14:37:44;37.50;39.00
29547;DHT22;40782;47.264;11.330;2023-06-22T14:40:12;37.70;40.80
29547;DHT22;40782;47.264;11.330;2023-06-22T14:42:40;38.00;40.10
29547;DHT22;40782;47.264;11.330;2023-06-22T14:45:07;38.10;39.10
29547;DHT22;40782;47.264;11.330;2023-06-22T14:47:34;38.20;40.10
29547;DHT22;40782;47.264;11.330;2023-06-22T14:50:02;38.40;40.60
29547;DHT22;40782;47.264;11.330;2023-06-22T14:52:29;38.30;39.30
29547;DHT22;40782;47.264;11.330;2023-06-22T14:54:56;38.30;38.40
29547;DHT22;40782;47.264;11.330;2023-06-22T14:57:23;38.30;37.90
29547;DHT22;40782;47.264;11.330;2023-06-22T14:59:51;38.70;39.30
29547;DHT22;40782;47.264;11.330;2023-06-22T15:02:18;39.00;37.70
29547;DHT22;40782;47.264;11.330;2023-06-22T15:04:46;38.90;37.80
29547;DHT22;40782;47.264;11.330;2023-06-22T15:07:13;39.00;38.80
29547;DHT22;40782;47.264;11.330;2023-06-22T15:09:40;39.10;37.80
29547;DHT22;40782;47.264;11.330;2023-06-22T15:12:08;39.20;38.20
29547;DHT22;40782;47.264;11.330;2023-06-22T15:14:37;39.20;37.60
29547;DHT22;40782;47.264;11.330;2023-06-22T15:17:06;39.30;37.20